»·PEaware :: DAL1977 KDEN-KSLC

DAL1977 :: KDEN-KSLC

FLIGHT INFORMATION

Flight Status: Arrived
Operator:
Delta Air Lines
More flights by this operator :: More flights under this callsign
Pilot: John C. (18682)
Aircraft: AIRBUS A320
(A320)
More flights by this aircraft type
Origin: KDEN Denver Intl
United States
Destination: KSLC Salt Lake City Intl
United States
More flights between these airports :: More routes between these airports
Route: YAMMI3 LAR CKW OCS NORDK5
File this flight plan on PilotEdge
Remarks:
Altitude:
(Current/Filed)
32,000ft
Speed:
(Current/Filed)
451kts
Departed: 06-May-18 04:45 PM
Arrived: 06-May-18 06:03 PM
Distance/Time
Traveled:
339nm/1:18
Distance/Time
To Go:
Arrived

Flight Plot

Page will automatically refresh every two minutes.

Flight plan parsing failed; only flown route is shown


Map Options




Map Legend


Flown Route
Filed Route
Departure Airport
Arrival Airport
Navaid (VOR, NDB)
Fix

Horizontal Profiles

Position Reports

Time Latitude Longitude Heading Altitude Ground
Speed
06-May-18 16:21 39.854353 -104.677072 173 5443ft 0kts
06-May-18 16:22 39.854353 -104.677072 173 5443ft 0kts
06-May-18 16:23 39.854353 -104.677072 173 5443ft 0kts
06-May-18 16:24 39.854353 -104.677072 173 5443ft 0kts
06-May-18 16:25 39.854353 -104.677072 173 5443ft 0kts
06-May-18 16:26 39.854353 -104.677072 173 5443ft 0kts
06-May-18 16:27 39.854353 -104.677072 173 5443ft 0kts
06-May-18 16:28 39.854353 -104.677072 173 5443ft 0kts
06-May-18 16:29 39.854353 -104.677072 173 5443ft 0kts
06-May-18 16:30 39.854353 -104.677072 173 5443ft 0kts
06-May-18 16:31 39.854353 -104.677072 173 5443ft 0kts
06-May-18 16:32 39.854353 -104.677072 173 5443ft 0kts
06-May-18 16:33 39.854356 -104.677072 173 5443ft 0kts
06-May-18 16:34 39.854912 -104.677151 173 5443ft 2kts
06-May-18 16:35 39.855398 -104.677220 173 5443ft 0kts
06-May-18 16:36 39.855398 -104.677220 173 5443ft 0kts
06-May-18 16:37 39.855398 -104.677220 173 5443ft 0kts
06-May-18 16:38 39.855219 -104.676215 90 5443ft 14kts
06-May-18 16:39 39.855761 -104.669680 58 5443ft 16kts
06-May-18 16:40 39.855836 -104.664507 90 5443ft 9kts
06-May-18 16:41 39.858201 -104.662195 359 5443ft 20kts
06-May-18 16:42 39.861036 -104.661556 89 5443ft 1kts
06-May-18 16:43 39.859857 -104.660021 180 5443ft 25kts
06-May-18 16:44 39.821207 -104.661678 171 7173ft 183kts
06-May-18 16:45 39.780531 -104.610516 126 9510ft 252kts
06-May-18 16:46 39.781897 -104.513164 74 10045ft 297kts
06-May-18 16:47 39.812968 -104.414423 46 10055ft 305kts
06-May-18 16:48 39.897030 -104.387296 3 11218ft 355kts
06-May-18 16:49 39.999666 -104.380751 0 13883ft 383kts
06-May-18 16:50 40.098395 -104.418669 319 16619ft 388kts
06-May-18 16:51 40.185665 -104.502516 319 19330ft 397kts
06-May-18 16:52 40.276132 -104.586874 319 21815ft 404kts
06-May-18 16:53 40.366839 -104.674251 317 24078ft 407kts
06-May-18 16:54 40.457485 -104.763659 317 26145ft 411kts
06-May-18 16:55 40.548546 -104.853720 317 28014ft 413kts
06-May-18 16:56 40.642082 -104.941822 319 29668ft 416kts
06-May-18 16:58 40.734077 -105.034468 315 31013ft 419kts
06-May-18 16:59 40.822507 -105.132774 314 32288ft 413kts
06-May-18 17:00 40.909308 -105.231070 314 32350ft 413kts
06-May-18 17:01 40.996172 -105.329669 315 32376ft 413kts
06-May-18 17:02 41.082695 -105.428229 315 32362ft 411kts
06-May-18 17:03 41.167277 -105.524922 316 32354ft 410kts
06-May-18 17:04 41.253155 -105.623446 316 32364ft 410kts
06-May-18 17:05 41.333052 -105.729455 300 32384ft 408kts
06-May-18 17:06 41.372581 -105.869664 287 32404ft 406kts
06-May-18 17:07 41.405763 -106.013056 287 32381ft 405kts
06-May-18 17:08 41.438622 -106.155703 287 32357ft 404kts
06-May-18 17:09 41.471426 -106.299015 287 32347ft 404kts
06-May-18 17:10 41.504021 -106.442345 287 32354ft 404kts
06-May-18 17:11 41.536423 -106.585757 287 32357ft 404kts
06-May-18 17:12 41.568521 -106.728746 286 32360ft 405kts
06-May-18 17:13 41.600747 -106.873254 286 32356ft 406kts
06-May-18 17:14 41.632705 -107.017520 285 32320ft 407kts
06-May-18 17:15 41.664561 -107.162282 284 32315ft 408kts
06-May-18 17:16 41.696357 -107.307749 284 32328ft 409kts
06-May-18 17:17 41.728004 -107.453520 284 32330ft 409kts
06-May-18 17:18 41.751831 -107.601220 269 32328ft 408kts
06-May-18 17:19 41.737217 -107.750798 262 32330ft 408kts
06-May-18 17:20 41.720514 -107.900789 262 32323ft 408kts
06-May-18 17:21 41.703691 -108.050301 262 32310ft 407kts
06-May-18 17:22 41.686649 -108.199957 262 32279ft 407kts
06-May-18 17:23 41.669426 -108.349425 262 32276ft 407kts
06-May-18 17:24 41.651959 -108.499233 262 32281ft 407kts
06-May-18 17:25 41.634319 -108.648777 262 32284ft 407kts
06-May-18 17:26 41.616844 -108.795268 261 32289ft 408kts
06-May-18 17:27 41.598776 -108.944990 262 32294ft 408kts
06-May-18 17:28 41.596669 -109.095007 274 32309ft 407kts
06-May-18 17:29 41.608556 -109.244758 273 32297ft 403kts
06-May-18 17:30 41.620119 -109.392810 273 32257ft 401kts
06-May-18 17:31 41.631470 -109.540487 273 32252ft 401kts
06-May-18 17:32 41.642039 -109.680263 273 32268ft 401kts
06-May-18 17:33 41.653061 -109.828544 273 32307ft 402kts
06-May-18 17:34 41.663908 -109.977086 273 32324ft 402kts
06-May-18 17:35 41.674571 -110.125803 273 32316ft 402kts
06-May-18 17:36 41.685016 -110.274179 273 32309ft 401kts
06-May-18 17:37 41.695265 -110.422511 273 32306ft 401kts
06-May-18 17:38 41.705815 -110.571105 273 32308ft 401kts
06-May-18 17:39 41.716285 -110.719039 272 32310ft 402kts
06-May-18 17:40 41.726635 -110.868228 273 32316ft 402kts
06-May-18 17:41 41.736759 -111.016975 272 32231ft 399kts
06-May-18 17:42 41.746417 -111.161841 271 31340ft 389kts
06-May-18 17:43 41.755854 -111.305838 271 30323ft 387kts
06-May-18 17:44 41.764879 -111.446254 270 28373ft 373kts
06-May-18 17:45 41.773470 -111.582547 270 26248ft 362kts
06-May-18 17:46 41.781606 -111.714253 270 24185ft 352kts
06-May-18 17:47 41.789301 -111.842567 268 22173ft 341kts
06-May-18 17:48 41.784174 -111.965546 242 20202ft 323kts
06-May-18 17:49 41.712413 -112.023063 189 18269ft 318kts
06-May-18 17:50 41.625976 -112.036011 189 16427ft 310kts
06-May-18 17:51 41.541726 -112.049114 189 14832ft 302kts
06-May-18 17:52 41.457875 -112.053548 177 13767ft 307kts
06-May-18 17:53 41.374463 -112.043509 177 12803ft 289kts
06-May-18 17:54 41.294234 -112.033887 177 11191ft 295kts
06-May-18 17:55 41.215615 -112.024627 177 10032ft 272kts
06-May-18 17:56 41.145974 -112.016460 178 9610ft 243kts
06-May-18 17:57 41.078655 -112.008280 177 9123ft 244kts
06-May-18 17:58 41.011472 -112.000668 177 8286ft 242kts
06-May-18 17:59 40.946044 -111.993004 177 6906ft 225kts
06-May-18 18:00 40.889941 -111.986485 177 5868ft 185kts
06-May-18 18:01 40.849431 -111.981796 177 5068ft 126kts
06-May-18 18:02 40.817701 -111.978089 176 4470ft 123kts
06-May-18 18:03 40.793441 -111.975342 176 4236ft 31kts
06-May-18 18:04 40.789858 -111.977209 247 4236ft 12kts
06-May-18 18:05 40.788602 -111.979862 189 4236ft 10kts
06-May-18 18:06 40.787030 -111.979596 154 4236ft 3kts
06-May-18 18:07 40.786890 -111.979510 155 4236ft 0kts
06-May-18 18:08 40.786890 -111.979510 155 4236ft 0kts
06-May-18 18:09 40.786890 -111.979510 155 4236ft 0kts

Navigation Log

Ident Type
Flight plan parsing failed, navigation log unavailable